Time;durP1;ratioP1;P1;durP2;ratioP2;P2;SDS_P1;SDS_P2;PMS_P1;PMS_P2;Temp;Humidity;BMP_temperature;BMP_pressure;BME280_temperature;BME280_humidity;BME280_pressure;Samples;Min_cycle;Max_cycle;Signal;HPM_P1;HPM_P2
2022/06/04 00:02:41;;;;;;;17.20;8.23;;;;;;;36.47;nan;93975.16;4998717;28;20199;-96
2022/06/04 00:05:29;;;;;;;18.73;9.87;;;;;;;36.41;nan;93974.59;5006083;28;20280;-95
2022/06/04 00:08:14;;;;;;;25.07;11.13;;;;;;;36.71;nan;93970.16;5037492;28;20253;-96
2022/06/04 00:17:07;;;;;;;14.60;8.57;;;;;;;36.81;nan;93978.63;5020876;28;20682;-95
2022/06/04 00:19:52;;;;;;;19.37;8.43;;;;;;;37.07;nan;93983.00;4989980;28;20271;-95
2022/06/04 00:22:36;;;;;;;16.07;9.13;;;;;;;37.16;nan;93976.19;5015602;28;20305;-96
2022/06/04 00:25:20;;;;;;;17.63;7.63;;;;;;;36.94;nan;93967.31;5018827;28;20268;-95
2022/06/04 00:28:06;;;;;;;25.63;9.73;;;;;;;37.28;nan;93969.28;5008796;28;20214;-96
2022/06/04 00:30:52;;;;;;;10.53;6.07;;;;;;;37.10;nan;93979.28;5019073;28;20306;-96
2022/06/04 00:33:39;;;;;;;15.83;8.17;;;;;;;37.45;nan;93978.97;5000859;28;20203;-95
2022/06/04 00:36:25;;;;;;;13.27;7.63;;;;;;;37.31;nan;93973.56;5021546;28;20760;-95
2022/06/04 00:39:09;;;;;;;14.80;8.40;;;;;;;37.37;nan;93966.81;5014804;28;20190;-96
2022/06/04 00:42:10;;;;;;;17.47;8.80;;;;;;;37.32;nan;93968.44;5020645;28;20578;-96
2022/06/04 00:45:25;;;;;;;15.43;8.63;;;;;;;37.27;nan;93967.84;5001840;28;20210;-95
2022/06/04 00:48:10;;;;;;;16.23;7.93;;;;;;;36.83;nan;93963.97;5020871;28;20300;-96
2022/06/04 00:50:55;;;;;;;14.77;7.47;;;;;;;36.71;nan;93959.19;5021064;28;20217;-96
2022/06/04 00:53:39;;;;;;;11.03;6.20;;;;;;;36.42;nan;93959.22;5021054;28;20249;-96
2022/06/04 00:56:35;;;;;;;20.40;8.33;;;;;;;36.75;nan;93964.19;4998945;28;20260;-95
2022/06/04 00:59:35;;;;;;;10.23;5.73;;;;;;;36.56;nan;93963.25;5010447;28;20248;-96
2022/06/04 01:02:53;;;;;;;16.03;5.87;;;;;;;36.73;nan;93962.03;5000091;28;20249;-95
2022/06/04 01:05:49;;;;;;;16.43;6.80;;;;;;;36.70;nan;93957.03;5005578;28;20206;-96
2022/06/04 01:08:58;;;;;;;15.90;7.50;;;;;;;36.59;nan;93958.78;5005978;28;20234;-96
2022/06/04 01:12:10;;;;;;;16.83;7.87;;;;;;;36.64;nan;93960.84;5016301;28;20236;-96
2022/06/04 01:15:33;;;;;;;16.80;6.77;;;;;;;36.45;nan;93962.81;5014601;28;20202;-96
2022/06/04 01:18:41;;;;;;;9.50;5.57;;;;;;;36.60;nan;93963.16;5010545;28;20217;-96
2022/06/04 01:21:25;;;;;;;16.50;6.20;;;;;;;36.62;nan;93968.91;4998018;28;20208;-95
2022/06/04 01:24:37;;;;;;;13.10;6.77;;;;;;;36.32;nan;93962.41;5035059;28;20654;-96
2022/06/04 01:27:29;;;;;;;9.80;5.80;;;;;;;36.40;nan;93956.38;5007918;28;20309;-96
2022/06/04 01:30:20;;;;;;;12.50;5.87;;;;;;;35.69;nan;93961.03;5019474;28;20229;-96
2022/06/04 01:33:11;;;;;;;9.30;6.13;;;;;;;36.34;nan;93950.69;5035080;28;20218;-96
2022/06/04 01:36:10;;;;;;;8.23;5.77;;;;;;;36.19;nan;93949.63;5019371;28;20281;-96
2022/06/04 01:39:04;;;;;;;15.67;6.63;;;;;;;36.43;nan;93954.09;5018266;28;20202;-96
2022/06/04 01:42:03;;;;;;;13.03;5.70;;;;;;;36.41;nan;93960.72;4996355;28;20248;-96
2022/06/04 01:44:50;;;;;;;11.93;6.73;;;;;;;36.46;nan;93967.88;5039768;28;20221;-96
2022/06/04 01:47:36;;;;;;;14.43;6.33;;;;;;;36.21;nan;93964.16;5016142;28;20206;-96
2022/06/04 01:50:27;;;;;;;12.57;6.70;;;;;;;35.96;nan;93963.31;5029742;28;20210;-96
2022/06/04 01:53:15;;;;;;;12.33;6.73;;;;;;;36.20;nan;93968.56;5021285;28;20233;-96
2022/06/04 01:56:10;;;;;;;18.70;6.33;;;;;;;35.84;nan;93964.34;5002781;28;20206;-94
2022/06/04 01:59:20;;;;;;;6.90;5.03;;;;;;;35.45;nan;93949.19;5014677;28;20199;-96
2022/06/04 02:02:10;;;;;;;17.37;5.57;;;;;;;35.89;nan;93956.19;5007340;28;20664;-96
2022/06/04 02:05:00;;;;;;;9.17;5.57;;;;;;;35.40;nan;93948.59;5020138;28;20321;-95
2022/06/04 02:07:48;;;;;;;10.77;6.30;;;;;;;35.61;nan;93949.53;5036445;28;20222;-96
2022/06/04 02:10:40;;;;;;;10.80;5.47;;;;;;;35.46;nan;93939.69;5038966;28;20222;-95
2022/06/04 02:13:26;;;;;;;11.30;5.70;;;;;;;35.34;nan;93939.97;5010389;28;20320;-95
2022/06/04 02:16:19;;;;;;;10.77;5.33;;;;;;;35.36;nan;93936.31;5002946;28;20216;-94
2022/06/04 02:19:04;;;;;;;8.47;5.90;;;;;;;35.57;nan;93943.81;5014300;28;20244;-96
2022/06/04 02:21:49;;;;;;;8.37;5.43;;;;;;;35.52;nan;93942.47;5023924;28;20205;-95
2022/06/04 02:24:34;;;;;;;15.20;6.53;;;;;;;35.52;nan;93930.81;5019501;28;20296;-96
2022/06/04 02:27:19;;;;;;;12.83;6.63;;;;;;;35.59;nan;93929.19;5020627;28;20228;-96
2022/06/04 02:30:05;;;;;;;12.97;6.40;;;;;;;35.61;nan;93932.03;5042181;28;20295;-95
2022/06/04 02:33:05;;;;;;;11.63;6.03;;;;;;;35.50;nan;93927.94;5039359;28;20658;-95
2022/06/04 02:36:02;;;;;;;10.40;6.43;;;;;;;35.66;nan;93921.72;5022914;28;20198;-95
2022/06/04 02:38:47;;;;;;;15.07;6.27;;;;;;;35.51;nan;93923.53;5021988;28;20197;-95
2022/06/04 02:41:45;;;;;;;13.03;6.70;;;;;;;35.56;nan;93924.88;5042228;28;20202;-95
2022/06/04 02:44:44;;;;;;;11.10;6.23;;;;;;;35.54;nan;93927.84;5021403;28;20214;-94
2022/06/04 02:47:41;;;;;;;11.40;6.63;;;;;;;35.78;nan;93926.56;5036317;28;20230;-95
2022/06/04 02:50:42;;;;;;;9.67;5.80;;;;;;;35.51;nan;93920.63;5015189;28;20266;-95
2022/06/04 02:53:32;;;;;;;12.40;6.23;;;;;;;35.36;nan;93924.66;5025928;28;20259;-96
2022/06/04 02:56:23;;;;;;;12.63;6.47;;;;;;;35.22;nan;93938.06;5028405;28;20341;-94
2022/06/04 02:59:15;;;;;;;11.07;7.07;;;;;;;35.32;nan;93948.75;5039005;28;20209;-96
2022/06/04 03:02:01;;;;;;;18.17;8.23;;;;;;;35.42;nan;93944.91;5014030;28;20198;-95
2022/06/04 03:04:49;;;;;;;16.03;7.33;;;;;;;35.17;nan;93941.78;5007088;28;20600;-96
2022/06/04 03:07:33;;;;;;;14.43;7.03;;;;;;;35.12;nan;93946.28;5006557;28;20754;-95
2022/06/04 03:10:32;;;;;;;17.20;7.37;;;;;;;35.17;nan;93938.88;5015816;28;20214;-96
2022/06/04 03:13:18;;;;;;;18.87;6.20;;;;;;;35.10;nan;93931.75;5024098;28;20542;-96
2022/06/04 03:16:04;;;;;;;19.23;7.30;;;;;;;35.02;nan;93938.47;5024387;28;20205;-96
2022/06/04 03:18:48;;;;;;;14.03;6.33;;;;;;;34.88;nan;93948.22;5020034;28;20207;-96
2022/06/04 03:21:32;;;;;;;14.47;6.27;;;;;;;34.79;nan;93944.06;4998160;28;20209;-96
2022/06/04 03:24:17;;;;;;;15.40;6.50;;;;;;;34.81;nan;93952.72;5038784;28;20352;-95
2022/06/04 03:27:02;;;;;;;12.47;5.67;;;;;;;34.85;nan;93952.66;5036540;28;20658;-96
2022/06/04 03:29:47;;;;;;;13.57;6.67;;;;;;;34.95;nan;93945.91;5021395;28;20206;-96
2022/06/04 03:32:32;;;;;;;18.23;7.20;;;;;;;34.86;nan;93951.19;5024900;28;20275;-96
2022/06/04 03:35:17;;;;;;;26.20;7.30;;;;;;;34.86;nan;93954.09;5027324;28;20348;-96
2022/06/04 03:38:02;;;;;;;10.50;6.17;;;;;;;34.72;nan;93957.28;5040717;28;20265;-96
2022/06/04 03:40:45;;;;;;;18.40;6.77;;;;;;;34.70;nan;93963.16;5025988;28;20206;-95
2022/06/04 03:43:30;;;;;;;23.33;7.43;;;;;;;34.83;nan;93958.50;5036026;28;20240;-96
2022/06/04 03:46:14;;;;;;;12.23;6.37;;;;;;;34.78;nan;93965.91;5036627;28;20212;-96
2022/06/04 03:48:59;;;;;;;19.77;8.00;;;;;;;34.76;nan;93968.13;5021984;28;20218;-96
2022/06/04 03:51:43;;;;;;;13.73;6.97;;;;;;;34.68;nan;93966.09;5007300;28;20210;-96
2022/06/04 03:57:39;;;;;;;21.43;7.43;;;;;;;34.81;nan;93981.16;5019154;28;20328;-96
2022/06/04 04:00:38;;;;;;;15.70;6.17;;;;;;;34.87;nan;93978.81;5037203;28;20201;-96
2022/06/04 04:03:26;;;;;;;14.73;7.27;;;;;;;34.83;nan;93978.91;5027941;28;20245;-96
2022/06/04 04:06:19;;;;;;;13.03;6.07;;;;;;;34.79;nan;93979.00;5023523;28;20269;-96
2022/06/04 04:09:09;;;;;;;7.47;5.60;;;;;;;34.82;nan;93974.53;5018731;28;20238;-96
2022/06/04 04:11:55;;;;;;;11.70;6.30;;;;;;;33.21;nan;93995.34;5035988;28;20666;-94
2022/06/04 04:14:41;;;;;;;14.70;6.87;;;;;;;34.90;nan;93988.94;5030344;28;20690;-96
2022/06/04 04:17:26;;;;;;;15.47;7.70;;;;;;;35.16;nan;93989.88;5013205;28;20233;-95
2022/06/04 04:20:19;;;;;;;22.27;8.77;;;;;;;35.17;nan;93985.50;5004408;28;20751;-96
2022/06/04 04:23:06;;;;;;;15.87;7.20;;;;;;;35.49;nan;93981.88;5021479;28;20215;-96
2022/06/04 04:25:50;;;;;;;12.00;6.47;;;;;;;35.41;nan;93973.34;5043798;28;20197;-94
2022/06/04 04:28:35;;;;;;;12.93;7.27;;;;;;;35.59;nan;93970.00;5021429;28;20256;-96
2022/06/04 04:31:26;;;;;;;31.13;10.20;;;;;;;35.80;nan;93975.38;5016208;28;20206;-96
2022/06/04 04:34:10;;;;;;;13.30;6.40;;;;;;;35.79;nan;93968.84;5018762;28;20202;-96
2022/06/04 04:36:55;;;;;;;12.87;6.93;;;;;;;35.94;nan;93977.94;5018090;28;20202;-96
2022/06/04 04:39:39;;;;;;;13.03;6.57;;;;;;;35.82;nan;93969.50;5012340;28;20202;-96
2022/06/04 04:42:24;;;;;;;17.67;7.93;;;;;;;36.21;nan;93975.84;5026140;28;20294;-95
2022/06/04 04:45:09;;;;;;;9.33;6.23;;;;;;;36.26;nan;93983.00;5018864;28;20259;-96
2022/06/04 04:47:54;;;;;;;21.73;9.50;;;;;;;36.43;nan;93984.00;5034051;28;20253;-96
2022/06/04 04:50:45;;;;;;;15.33;7.50;;;;;;;36.44;nan;93993.47;5018174;28;20626;-95
2022/06/04 04:53:29;;;;;;;14.03;7.00;;;;;;;36.85;nan;93990.19;5003280;28;20210;-96
2022/06/04 04:56:15;;;;;;;15.93;6.97;;;;;;;36.95;nan;93983.38;5033652;28;20234;-95
2022/06/04 04:58:59;;;;;;;10.13;6.37;;;;;;;37.10;nan;93985.13;5014246;28;20214;-95
2022/06/04 05:01:44;;;;;;;14.90;7.60;;;;;;;37.31;nan;93984.53;5017080;28;20265;-95
2022/06/04 05:04:34;;;;;;;15.33;6.53;;;;;;;37.47;nan;93995.72;5027972;28;20292;-95
2022/06/04 05:07:20;;;;;;;19.70;8.17;;;;;;;37.73;nan;93992.03;5010861;28;20289;-95
2022/06/04 05:10:06;;;;;;;13.87;6.17;;;;;;;37.64;nan;93990.88;5024520;28;20672;-95
2022/06/04 05:12:52;;;;;;;12.17;6.53;;;;;;;38.03;nan;93996.22;5015903;28;20717;-95
2022/06/04 05:15:37;;;;;;;16.40;6.37;;;;;;;38.12;nan;93999.59;5000208;28;20206;-96
2022/06/04 05:18:21;;;;;;;12.23;6.93;;;;;;;38.64;nan;94005.94;5004734;28;20193;-95
2022/06/04 05:21:26;;;;;;;9.10;6.10;;;;;;;38.54;nan;94006.97;5018650;28;20674;-94
2022/06/04 05:24:16;;;;;;;10.03;6.50;;;;;;;38.48;nan;94015.97;5017802;28;20256;-96
2022/06/04 05:27:04;;;;;;;14.73;7.80;;;;;;;38.60;nan;94021.41;5017773;28;20201;-93
2022/06/04 05:29:48;;;;;;;12.10;7.97;;;;;;;39.21;nan;94013.41;5013297;28;20356;-94
2022/06/04 05:32:33;;;;;;;14.10;7.30;;;;;;;39.29;nan;94016.03;5001021;28;20211;-94
2022/06/04 05:35:17;;;;;;;12.57;7.03;;;;;;;39.39;nan;94015.69;5017587;28;20210;-94
2022/06/04 05:38:01;;;;;;;10.40;7.07;;;;;;;39.33;nan;94007.09;5014591;28;20225;-94
2022/06/04 05:40:46;;;;;;;16.67;7.63;;;;;;;39.60;nan;94004.63;5031584;28;20193;-95
2022/06/04 05:43:30;;;;;;;16.40;7.40;;;;;;;39.96;nan;94007.66;5016721;28;20221;-94
2022/06/04 05:46:15;;;;;;;7.40;5.20;;;;;;;40.00;nan;94019.22;5031719;28;20210;-95
2022/06/04 05:49:00;;;;;;;6.90;5.27;;;;;;;40.10;nan;94018.09;5011218;28;20305;-95
2022/06/04 05:51:47;;;;;;;7.63;4.47;;;;;;;40.70;nan;94017.84;5030838;28;20285;-94
2022/06/04 05:54:32;;;;;;;9.00;3.97;;;;;;;40.81;nan;94027.66;5011167;28;20206;-94
2022/06/04 05:57:17;;;;;;;4.67;3.73;;;;;;;41.17;nan;94029.03;4998863;28;20205;-94
2022/06/04 06:00:07;;;;;;;8.00;4.53;;;;;;;40.99;nan;94040.84;5015736;28;20210;-94
2022/06/04 06:02:56;;;;;;;3.90;3.27;;;;;;;41.23;nan;94045.00;5015958;28;20268;-93
2022/06/04 06:05:44;;;;;;;5.57;2.77;;;;;;;39.70;nan;94052.66;5021809;28;20230;-93
2022/06/04 06:08:27;;;;;;;8.63;3.53;;;;;;;39.20;nan;94058.88;5010508;28;20724;-93
2022/06/04 06:11:16;;;;;;;9.10;3.27;;;;;;;37.73;nan;94056.38;5018103;28;20230;-93
2022/06/04 06:14:00;;;;;;;4.97;3.13;;;;;;;39.21;nan;94072.03;5029069;28;20219;-93
2022/06/04 06:16:46;;;;;;;8.97;3.33;;;;;;;39.13;nan;94067.19;5001843;28;20234;-94
2022/06/04 06:19:30;;;;;;;5.27;3.10;;;;;;;39.15;nan;94070.06;5035403;28;20317;-94
2022/06/04 06:22:15;;;;;;;9.83;3.03;;;;;;;39.64;nan;94077.81;5036603;28;20201;-94
2022/06/04 06:25:04;;;;;;;5.30;2.93;;;;;;;40.78;nan;94076.28;5018758;28;20297;-94
2022/06/04 06:27:49;;;;;;;8.63;2.70;;;;;;;40.26;nan;94079.13;5034178;28;20206;-94
2022/06/04 06:30:34;;;;;;;4.87;2.40;;;;;;;40.68;nan;94086.22;5026072;28;20253;-94
2022/06/04 06:33:19;;;;;;;3.50;1.90;;;;;;;40.37;nan;94092.63;5004575;28;20283;-96
2022/06/04 06:36:09;;;;;;;4.40;2.30;;;;;;;41.48;nan;94086.53;5018718;28;20242;-96
2022/06/04 06:38:54;;;;;;;7.30;2.17;;;;;;;41.60;nan;94091.88;5017913;28;20190;-94
2022/06/04 06:41:39;;;;;;;4.93;1.90;;;;;;;40.28;nan;94094.47;4998682;28;20282;-95
2022/06/04 06:44:25;;;;;;;3.33;2.10;;;;;;;39.83;nan;94085.94;5010739;28;20694;-96
2022/06/04 06:47:10;;;;;;;5.77;1.80;;;;;;;40.65;nan;94098.88;5004999;28;20753;-96
2022/06/04 06:49:55;;;;;;;3.20;1.83;;;;;;;41.31;nan;94103.44;5015743;28;20230;-95
2022/06/04 06:52:40;;;;;;;6.83;2.30;;;;;;;40.75;nan;94104.31;5009673;28;20203;-96
2022/06/04 06:55:25;;;;;;;7.60;2.17;;;;;;;40.95;nan;94106.41;4999080;28;20256;-95
2022/06/04 06:58:09;;;;;;;5.90;2.30;;;;;;;39.86;nan;94104.91;5017661;28;20206;-96
2022/06/04 07:00:53;;;;;;;5.53;1.93;;;;;;;40.39;nan;94110.16;5020704;28;20253;-94
2022/06/04 07:03:40;;;;;;;4.27;1.90;;;;;;;41.27;nan;94106.56;5000524;28;20209;-96
2022/06/04 07:06:39;;;;;;;2.83;1.70;;;;;;;40.50;nan;94133.25;5015034;28;20222;-96
2022/06/04 07:09:27;;;;;;;4.20;1.80;;;;;;;38.73;nan;94168.19;5000186;28;20214;-96
2022/06/04 07:12:12;;;;;;;8.50;2.20;;;;;;;39.31;nan;94191.94;4985723;28;20229;-91
2022/06/04 07:15:08;;;;;;;3.87;1.87;;;;;;;37.95;nan;94199.09;5011815;28;20265;-92
2022/06/04 07:17:53;;;;;;;6.50;2.10;;;;;;;39.37;nan;94209.34;4997949;28;20254;-96
2022/06/04 07:20:38;;;;;;;7.60;1.97;;;;;;;39.00;nan;94206.19;4977947;28;20200;-95
2022/06/04 07:23:22;;;;;;;3.97;1.70;;;;;;;38.95;nan;94187.31;4983825;28;20299;-93
2022/06/04 07:26:07;;;;;;;2.40;1.50;;;;;;;40.27;nan;94187.00;4982244;28;20199;-95
2022/06/04 07:28:52;;;;;;;10.35;1.45;;;;;;;40.31;nan;94192.72;5000613;28;20230;-95
2022/06/04 07:31:38;;;;;;;5.32;1.40;;;;;;;40.69;nan;94181.72;5008438;28;20206;-95
2022/06/04 07:34:22;;;;;;;8.10;1.50;;;;;;;42.17;nan;94178.31;4999970;28;20214;-95
2022/06/04 07:37:07;;;;;;;5.40;1.33;;;;;;;43.58;nan;94187.03;5012544;28;20210;-94
2022/06/04 07:39:53;;;;;;;8.15;1.30;;;;;;;41.40;nan;94181.72;4998775;28;20259;-93
2022/06/04 07:42:38;;;;;;;4.32;1.55;;;;;;;40.65;nan;94173.06;4994054;28;20250;-92
2022/06/04 07:45:23;;;;;;;3.08;1.25;;;;;;;41.07;nan;94176.50;4998606;28;20207;-94
2022/06/04 07:48:07;;;;;;;2.90;1.50;;;;;;;41.10;nan;94174.91;4998528;28;20222;-93
2022/06/04 07:50:51;;;;;;;4.15;1.17;;;;;;;42.20;nan;94161.28;4996926;28;20242;-95
2022/06/04 07:53:36;;;;;;;2.13;1.00;;;;;;;41.72;nan;94161.97;4993950;28;20210;-94
2022/06/04 07:56:20;;;;;;;3.17;1.40;;;;;;;41.52;nan;94162.84;4995940;28;20266;-95
2022/06/04 07:59:06;;;;;;;1.00;0.90;;;;;;;41.91;nan;94147.84;5010070;28;20294;-94
2022/06/04 08:01:52;;;;;;;3.78;1.40;;;;;;;40.20;nan;94135.88;5012135;28;20297;-94
2022/06/04 08:04:37;;;;;;;3.80;1.58;;;;;;;41.97;nan;94129.91;4996832;28;20214;-95
2022/06/04 08:07:23;;;;;;;4.90;1.50;;;;;;;43.04;nan;94138.78;5012098;28;20203;-94
2022/06/04 08:10:08;;;;;;;4.43;1.45;;;;;;;43.60;nan;94136.75;4997703;28;20218;-96
2022/06/04 08:12:55;;;;;;;4.03;1.50;;;;;;;42.74;nan;94122.63;4997059;28;20225;-94
2022/06/04 08:15:42;;;;;;;3.05;1.45;;;;;;;44.79;nan;94121.38;5008344;28;20210;-95
2022/06/04 08:18:28;;;;;;;3.42;1.08;;;;;;;45.83;nan;94119.63;4983505;28;20202;-95
2022/06/04 08:21:12;;;;;;;4.30;1.10;;;;;;;46.88;nan;94126.31;4992696;28;20510;-95
2022/06/04 08:23:56;;;;;;;1.95;1.20;;;;;;;46.17;nan;94119.03;4997658;28;20671;-94
2022/06/04 08:26:43;;;;;;;6.47;1.30;;;;;;;44.45;nan;94102.59;4995789;28;20763;-95
2022/06/04 08:29:30;;;;;;;1.90;1.20;;;;;;;46.38;nan;94089.50;5011943;28;20302;-96
2022/06/04 08:32:14;;;;;;;3.38;1.30;;;;;;;45.74;nan;94092.00;5013165;28;20234;-95
2022/06/04 08:34:58;;;;;;;3.63;1.20;;;;;;;45.16;nan;94080.78;4984930;28;20205;-96
2022/06/04 08:37:42;;;;;;;2.38;1.20;;;;;;;44.80;nan;94069.56;4998315;28;20206;-94
2022/06/04 08:40:33;;;;;;;2.95;1.40;;;;;;;47.07;nan;94073.84;4999999;28;20245;-94
2022/06/04 08:43:36;;;;;;;2.83;1.20;;;;;;;47.30;nan;94064.13;4988938;28;20202;-92
2022/06/04 08:46:38;;;;;;;3.20;1.10;;;;;;;48.60;nan;94072.78;4995566;28;20250;-93
2022/06/04 08:49:34;;;;;;;1.70;1.15;;;;;;;48.10;nan;94071.22;5004334;28;20221;-91
2022/06/04 08:52:22;;;;;;;4.63;1.20;;;;;;;48.14;nan;94074.63;4994527;28;20251;-93
2022/06/04 08:59:02;;;;;;;3.40;1.20;;;;;;;47.80;nan;94074.78;4929890;29;20205;-92
2022/06/04 09:01:53;;;;;;;3.22;1.02;;;;;;;48.39;nan;94076.56;5016642;28;20226;-91
2022/06/04 09:04:54;;;;;;;3.00;1.23;;;;;;;49.09;nan;94081.09;5020760;28;20207;-92
2022/06/04 09:07:47;;;;;;;2.95;1.20;;;;;;;49.18;nan;94081.91;5035983;28;20294;-92
2022/06/04 09:10:41;;;;;;;2.20;1.23;;;;;;;48.20;nan;94083.09;5012796;28;20258;-93
2022/06/04 09:13:31;;;;;;;3.08;0.98;;;;;;;49.33;nan;94079.22;4997570;28;20703;-93
2022/06/04 09:16:37;;;;;;;2.40;1.13;;;;;;;49.88;nan;94077.97;5015432;28;20198;-91
2022/06/04 09:19:27;;;;;;;5.15;1.17;;;;;;;51.82;nan;94073.16;5014495;28;20287;-93
2022/06/04 09:22:28;;;;;;;2.20;1.25;;;;;;;51.55;nan;94089.66;5000675;28;20222;-92
2022/06/04 09:25:19;;;;;;;6.70;1.10;;;;;;;51.05;nan;94091.66;4997439;28;20571;-94
2022/06/04 09:28:20;;;;;;;3.03;1.10;;;;;;;51.76;nan;94095.31;5010458;28;20203;-91
2022/06/04 09:31:10;;;;;;;2.28;1.20;;;;;;;51.71;nan;94088.28;4997978;28;20211;-91
2022/06/04 09:34:02;;;;;;;3.22;1.15;;;;;;;53.04;nan;94092.97;5012032;28;20346;-92
2022/06/04 09:36:47;;;;;;;3.22;1.23;;;;;;;53.15;nan;94087.47;4996967;28;20655;-93
2022/06/04 09:39:34;;;;;;;4.82;0.98;;;;;;;53.19;nan;94084.81;4997688;28;20194;-92
2022/06/04 09:42:23;;;;;;;8.30;1.58;;;;;;;53.26;nan;94091.63;4983347;28;20214;-92
2022/06/04 09:45:20;;;;;;;2.92;1.10;;;;;;;53.99;nan;94093.06;4992698;28;20203;-93
2022/06/04 09:48:19;;;;;;;5.20;1.20;;;;;;;49.08;nan;94085.59;4993943;28;20239;-93
2022/06/04 09:51:16;;;;;;;3.60;1.23;;;;;;;52.38;nan;94089.13;5000734;28;20203;-92
2022/06/04 09:54:03;;;;;;;3.92;1.40;;;;;;;51.88;nan;94082.31;4995891;28;20282;-94
2022/06/04 09:56:53;;;;;;;4.63;1.40;;;;;;;52.46;nan;94084.72;4984317;28;20241;-92
2022/06/04 09:59:37;;;;;;;1.88;1.23;;;;;;;51.76;nan;94087.03;4974541;28;20258;-94
2022/06/04 10:02:22;;;;;;;3.92;1.38;;;;;;;51.87;nan;94080.91;4981499;28;20238;-94
2022/06/04 10:05:07;;;;;;;2.70;1.20;;;;;;;50.77;nan;94082.75;5003477;28;20206;-94
2022/06/04 10:07:53;;;;;;;3.63;1.35;;;;;;;50.12;nan;94073.78;5015624;28;20242;-93
2022/06/04 10:10:44;;;;;;;4.40;1.30;;;;;;;50.08;nan;94079.34;5001447;28;20278;-93
2022/06/04 10:13:43;;;;;;;4.45;1.33;;;;;;;53.41;nan;94070.03;5004226;28;20343;-92
2022/06/04 10:16:27;;;;;;;3.00;1.58;;;;;;;53.96;nan;94079.84;5001131;28;20261;-92
2022/06/04 10:19:22;;;;;;;5.40;1.40;;;;;;;53.22;nan;94064.34;5013295;28;20210;-92
2022/06/04 10:22:15;;;;;;;4.20;1.20;;;;;;;52.25;nan;94061.16;5014518;28;20254;-93
2022/06/04 10:25:03;;;;;;;6.15;1.00;;;;;;;54.26;nan;94076.94;5002878;28;20198;-93
2022/06/04 10:28:07;;;;;;;5.30;1.10;;;;;;;52.39;nan;94069.59;5015714;28;20337;-93
2022/06/04 10:31:02;;;;;;;3.97;1.23;;;;;;;54.07;nan;94080.31;5020903;28;20290;-92
2022/06/04 10:34:00;;;;;;;3.63;1.20;;;;;;;53.16;nan;94061.91;5000202;28;20207;-93
2022/06/04 10:36:55;;;;;;;3.72;1.27;;;;;;;53.95;nan;94066.47;5010698;28;20270;-92
2022/06/04 10:39:52;;;;;;;2.95;1.05;;;;;;;54.65;nan;94058.16;5010974;28;20198;-94
2022/06/04 10:42:51;;;;;;;3.45;1.27;;;;;;;52.73;nan;94050.81;5009790;28;20305;-93
2022/06/04 10:46:08;;;;;;;6.78;1.60;;;;;;;52.65;nan;94051.56;5012711;28;20238;-94
2022/06/04 10:49:07;;;;;;;3.00;1.30;;;;;;;53.16;nan;94061.91;5009994;28;20198;-92
2022/06/04 10:52:15;;;;;;;5.97;1.50;;;;;;;53.63;nan;94055.25;5008656;28;20362;-93
2022/06/04 10:55:20;;;;;;;2.00;1.13;;;;;;;56.93;nan;94057.19;5026825;28;20234;-93
2022/06/04 10:58:10;;;;;;;2.10;1.10;;;;;;;54.53;nan;94047.38;4998634;28;20277;-93
2022/06/04 11:01:03;;;;;;;2.72;1.20;;;;;;;56.26;nan;94055.97;5011368;28;20758;-94
2022/06/04 11:03:57;;;;;;;2.47;1.20;;;;;;;56.01;nan;94048.81;5009089;28;20203;-94
2022/06/04 11:06:49;;;;;;;5.32;1.52;;;;;;;54.50;nan;94043.88;5019222;28;20290;-93
2022/06/04 11:09:38;;;;;;;2.03;1.25;;;;;;;51.94;nan;94024.97;5007684;28;20197;-92
2022/06/04 11:12:58;;;;;;;5.40;1.20;;;;;;;54.79;nan;94033.47;5015235;28;20719;-92
2022/06/04 11:15:59;;;;;;;7.18;1.30;;;;;;;54.90;nan;94039.16;5002852;28;20294;-93
2022/06/04 11:18:50;;;;;;;4.03;0.95;;;;;;;53.16;nan;94025.94;5009441;28;20205;-93
2022/06/04 11:21:48;;;;;;;3.72;1.05;;;;;;;52.74;nan;94031.25;5009954;28;20679;-92
2022/06/04 11:24:47;;;;;;;5.53;1.17;;;;;;;55.70;nan;94023.50;5019324;28;20412;-94
2022/06/04 11:27:43;;;;;;;4.65;1.20;;;;;;;56.55;nan;94038.59;5008108;28;20198;-95
2022/06/04 11:30:46;;;;;;;5.30;1.48;;;;;;;54.68;nan;94024.06;5004342;28;20282;-95
2022/06/04 11:33:52;;;;;;;4.15;1.30;;;;;;;53.96;nan;94029.56;5018091;28;20198;-94
2022/06/04 11:37:13;;;;;;;1.92;0.95;;;;;;;56.99;nan;94038.44;5020720;28;20202;-93
2022/06/04 11:40:07;;;;;;;3.55;1.10;;;;;;;54.06;nan;94033.91;5028693;28;20647;-95
2022/06/04 11:42:54;;;;;;;3.15;1.35;;;;;;;52.56;nan;94032.94;5013729;28;20257;-91
2022/06/04 11:45:41;;;;;;;4.57;1.30;;;;;;;54.19;nan;94031.16;5032788;28;20219;-95
2022/06/04 11:48:47;;;;;;;6.07;1.02;;;;;;;55.40;nan;94030.34;4997004;28;20198;-93
2022/06/04 11:52:09;;;;;;;2.40;1.05;;;;;;;55.99;nan;94027.25;5032461;28;20248;-95
2022/06/04 11:55:19;;;;;;;5.35;1.13;;;;;;;56.61;nan;94034.97;5031081;28;20209;-94
2022/06/04 11:58:13;;;;;;;3.28;1.33;;;;;;;55.77;nan;94032.59;5016159;28;20280;-94
2022/06/04 12:01:08;;;;;;;3.15;1.20;;;;;;;55.20;nan;94033.09;5032232;28;20234;-94
2022/06/04 12:03:59;;;;;;;4.57;0.90;;;;;;;57.02;nan;94024.56;4995250;28;20229;-92
2022/06/04 12:06:50;;;;;;;4.80;1.33;;;;;;;54.77;nan;94027.66;4998242;28;20225;-94
2022/06/04 12:09:51;;;;;;;2.13;1.20;;;;;;;57.36;nan;94029.81;5005626;28;20203;-93
2022/06/04 12:12:42;;;;;;;4.57;1.50;;;;;;;55.81;nan;94029.84;4981474;28;20242;-92
2022/06/04 12:15:39;;;;;;;1.40;1.00;;;;;;;54.96;nan;94035.53;4999976;28;20563;-92
2022/06/04 12:18:30;;;;;;;1.85;0.95;;;;;;;56.01;nan;94030.06;4997400;28;20600;-95
2022/06/04 12:24:40;;;;;;;4.65;1.30;;;;;;;58.72;nan;94039.31;5011139;28;20301;-93
2022/06/04 12:27:26;;;;;;;4.00;1.55;;;;;;;57.33;nan;94037.69;5002192;28;20218;-94
2022/06/04 12:30:18;;;;;;;3.15;1.02;;;;;;;60.17;nan;94050.13;5005707;28;20627;-92
2022/06/04 12:33:08;;;;;;;1.40;1.00;;;;;;;54.14;nan;94029.44;5009444;28;20281;-90
2022/06/04 12:36:02;;;;;;;2.60;1.25;;;;;;;54.76;nan;94031.56;4995264;28;20694;-93
2022/06/04 12:39:15;;;;;;;3.00;1.40;;;;;;;57.33;nan;94025.63;4994138;28;20206;-92
2022/06/04 12:42:09;;;;;;;2.15;1.02;;;;;;;55.19;nan;94025.66;4980747;28;20232;-94
2022/06/04 12:45:26;;;;;;;4.35;1.60;;;;;;;56.65;nan;94028.50;4999706;28;20218;-93
2022/06/04 12:48:33;;;;;;;3.22;1.38;;;;;;;54.62;nan;94027.66;5003403;28;20262;-93
2022/06/04 12:51:39;;;;;;;3.58;1.00;;;;;;;55.92;nan;94029.50;5000803;28;20588;-93
2022/06/04 12:54:48;;;;;;;3.47;1.38;;;;;;;59.07;nan;94044.34;5011751;28;20301;-94
2022/06/04 12:57:53;;;;;;;3.03;1.38;;;;;;;56.18;nan;94035.75;5005428;28;20205;-92
2022/06/04 13:00:42;;;;;;;3.95;1.20;;;;;;;60.16;nan;94057.81;4991680;28;20259;-92
2022/06/04 13:03:33;;;;;;;4.13;1.10;;;;;;;59.62;nan;94056.03;5000651;28;20710;-93
2022/06/04 13:06:49;;;;;;;6.72;1.33;;;;;;;56.53;nan;94044.84;4998692;28;20206;-91
2022/06/04 13:09:45;;;;;;;3.45;1.52;;;;;;;56.13;nan;94040.13;4997868;28;20678;-92
2022/06/04 13:12:42;;;;;;;4.25;1.10;;;;;;;59.39;nan;94048.88;5016917;28;20222;-95
2022/06/04 13:15:43;;;;;;;2.45;1.17;;;;;;;57.98;nan;94046.22;5001586;28;20198;-93
2022/06/04 13:18:33;;;;;;;3.85;1.30;;;;;;;57.44;nan;94040.97;5009833;28;20199;-93
2022/06/04 13:21:21;;;;;;;2.67;1.23;;;;;;;56.19;nan;94048.50;5000493;28;20477;-93
2022/06/04 13:24:13;;;;;;;5.07;1.60;;;;;;;56.30;nan;94043.53;5005234;28;20208;-91
2022/06/04 13:27:03;;;;;;;4.68;1.30;;;;;;;59.80;nan;94063.59;5027804;28;20198;-94
2022/06/04 13:29:56;;;;;;;3.40;1.45;;;;;;;58.49;nan;94051.88;5035754;28;20198;-93
2022/06/04 13:32:40;;;;;;;5.05;1.20;;;;;;;60.50;nan;94065.69;5030884;28;20202;-93
2022/06/04 13:35:31;;;;;;;3.80;1.35;;;;;;;55.12;nan;94045.94;5020511;28;20202;-94
2022/06/04 13:38:28;;;;;;;2.88;1.15;;;;;;;58.32;nan;94053.72;5007407;28;20221;-95
2022/06/04 13:44:41;;;;;;;3.10;1.38;;;;;;;59.32;nan;94058.00;5021304;28;20213;-93
2022/06/04 13:47:36;;;;;;;4.18;1.48;;;;;;;56.44;nan;94047.34;5009499;28;20250;-93
2022/06/04 13:50:23;;;;;;;3.03;1.60;;;;;;;57.11;nan;94049.16;5016108;28;20265;-94
2022/06/04 13:53:19;;;;;;;2.03;1.10;;;;;;;59.26;nan;94055.00;5036786;28;20201;-91
2022/06/04 13:56:09;;;;;;;6.90;1.67;;;;;;;59.96;nan;94057.22;5012929;28;20627;-94
2022/06/04 13:58:53;;;;;;;4.50;1.48;;;;;;;57.24;nan;94042.50;5006691;28;20295;-93
2022/06/04 14:01:41;;;;;;;3.00;1.33;;;;;;;59.87;nan;94055.19;5009252;28;20259;-96